createdAt,value
2023-02-27T00:01:48.567Z,4.53
2023-02-27T00:04:16.969Z,4.60
2023-02-27T00:06:45.170Z,4.53
2023-02-27T00:09:13.464Z,4.55
2023-02-27T00:11:43.383Z,4.56
2023-02-27T00:14:11.821Z,4.58
2023-02-27T00:16:40.057Z,4.56
2023-02-27T00:19:10.196Z,4.62
2023-02-27T00:21:38.431Z,4.57
2023-02-27T00:24:07.718Z,4.60
2023-02-27T00:26:36.699Z,4.59
2023-02-27T00:29:05.490Z,4.63
2023-02-27T00:31:34.768Z,4.65
2023-02-27T00:34:04.171Z,4.68
2023-02-27T00:36:33.838Z,4.77
2023-02-27T00:39:03.336Z,4.78
2023-02-27T00:41:31.623Z,4.81
2023-02-27T00:44:00.279Z,4.81
2023-02-27T00:46:28.544Z,4.75
2023-02-27T00:48:56.754Z,4.74
2023-02-27T00:51:27.260Z,4.69
2023-02-27T00:53:58.391Z,4.68
2023-02-27T00:56:26.973Z,4.62
2023-02-27T00:58:55.592Z,4.58
2023-02-27T01:01:24.072Z,4.51
2023-02-27T01:03:52.560Z,4.53
2023-02-27T01:06:20.741Z,4.50
2023-02-27T01:08:49.135Z,4.58
2023-02-27T01:11:18.862Z,4.61
2023-02-27T01:13:47.361Z,4.61
2023-02-27T01:16:15.890Z,4.60
2023-02-27T01:18:44.179Z,4.60
2023-02-27T01:21:12.488Z,4.57
2023-02-27T01:23:40.842Z,4.56
2023-02-27T01:26:09.238Z,4.53
2023-02-27T01:28:38.901Z,4.48
2023-02-27T01:31:07.664Z,4.43
2023-02-27T01:33:35.893Z,4.44
2023-02-27T01:36:04.270Z,4.42
2023-02-27T01:38:32.470Z,4.40
2023-02-27T01:41:02.052Z,4.40
2023-02-27T01:43:30.283Z,4.41
2023-02-27T01:46:00.835Z,4.40
2023-02-27T01:48:34.552Z,4.38
2023-02-27T01:51:06.171Z,4.37
2023-02-27T01:53:36.232Z,4.30
2023-02-27T01:56:11.370Z,4.29
2023-02-27T01:58:40.321Z,4.28
2023-02-27T02:01:10.317Z,4.25
2023-02-27T02:03:45.038Z,4.24
2023-02-27T02:06:14.089Z,4.20
2023-02-27T02:08:45.576Z,4.20
2023-02-27T02:11:16.184Z,4.18
2023-02-27T02:13:47.065Z,4.16
2023-02-27T02:16:30.660Z,4.14
2023-02-27T02:19:08.035Z,4.10
2023-02-27T02:22:15.276Z,4.04
2023-02-27T02:25:16.252Z,4.04
2023-02-27T02:28:03.066Z,4.01
2023-02-27T02:30:53.815Z,3.99
2023-02-27T02:34:10.002Z,3.97
2023-02-27T02:37:25.446Z,3.93
2023-02-27T02:40:17.581Z,3.96
2023-02-27T02:42:53.874Z,3.99
2023-02-27T02:45:32.045Z,4.00
2023-02-27T02:48:13.396Z,4.02
2023-02-27T02:50:49.552Z,4.03
2023-02-27T02:53:36.148Z,4.03
2023-02-27T02:56:12.015Z,4.03
2023-02-27T02:58:49.076Z,4.01
2023-02-27T03:01:19.780Z,4.00
2023-02-27T03:03:54.517Z,4.02
2023-02-27T03:06:29.663Z,4.02
2023-02-27T03:09:04.638Z,4.01
2023-02-27T03:11:39.414Z,4.00
2023-02-27T03:14:12.438Z,3.93
2023-02-27T03:16:44.185Z,3.86
2023-02-27T03:19:18.671Z,3.84
2023-02-27T03:21:51.479Z,3.77
2023-02-27T03:24:24.790Z,3.77
2023-02-27T03:26:57.269Z,3.77
2023-02-27T03:29:44.875Z,3.75
2023-02-27T03:32:18.966Z,3.83
2023-02-27T03:34:48.652Z,3.87
2023-02-27T03:37:32.935Z,3.89
2023-02-27T03:40:09.291Z,3.86
2023-02-27T03:42:44.087Z,3.88
2023-02-27T03:45:32.476Z,3.90
2023-02-27T03:48:01.499Z,3.94
2023-02-27T03:50:30.457Z,3.97
2023-02-27T03:52:59.068Z,3.95
2023-02-27T03:55:34.163Z,4.03
2023-02-27T03:58:04.102Z,4.03
2023-02-27T04:00:33.257Z,4.03
2023-02-27T04:03:03.037Z,4.04
2023-02-27T04:05:32.773Z,3.99
2023-02-27T04:08:27.048Z,3.98
2023-02-27T04:11:09.383Z,3.97
2023-02-27T04:13:48.772Z,3.97
2023-02-27T04:16:47.917Z,3.94
2023-02-27T04:19:34.527Z,3.93
2023-02-27T04:22:14.058Z,3.93
2023-02-27T04:24:53.511Z,3.99
2023-02-27T04:27:32.618Z,4.08
2023-02-27T04:30:14.539Z,4.16
2023-02-27T04:32:49.158Z,4.24
2023-02-27T04:35:23.788Z,4.31
2023-02-27T04:37:59.706Z,4.34
2023-02-27T04:40:34.935Z,4.32
2023-02-27T04:43:08.028Z,4.26
2023-02-27T04:45:41.540Z,4.21
2023-02-27T04:48:17.084Z,4.16
2023-02-27T04:50:50.265Z,4.11
2023-02-27T04:53:23.674Z,4.08
2023-02-27T04:55:56.485Z,4.07
2023-02-27T04:58:29.778Z,4.01
2023-02-27T05:01:04.350Z,4.00
2023-02-27T05:03:36.696Z,4.02
2023-02-27T05:06:05.271Z,4.05
2023-02-27T05:08:40.000Z,4.13
2023-02-27T05:11:12.409Z,4.18
2023-02-27T05:13:47.822Z,4.17
2023-02-27T05:16:24.811Z,4.16
2023-02-27T05:18:53.165Z,4.13
2023-02-27T05:21:29.162Z,4.11
2023-02-27T05:24:08.005Z,4.07
2023-02-27T05:26:48.408Z,4.03
2023-02-27T05:29:25.218Z,3.99
2023-02-27T05:32:00.154Z,3.94
2023-02-27T05:34:34.710Z,3.92
2023-02-27T05:37:09.042Z,3.88
2023-02-27T05:39:41.105Z,3.87
2023-02-27T05:42:15.186Z,3.84
2023-02-27T05:44:48.935Z,3.78
2023-02-27T05:47:21.939Z,3.73
2023-02-27T05:49:54.598Z,3.64
2023-02-27T05:52:26.646Z,3.56
2023-02-27T05:55:00.751Z,3.52
2023-02-27T05:57:34.795Z,3.49
2023-02-27T06:00:09.521Z,3.44
2023-02-27T06:02:43.785Z,3.44
2023-02-27T06:05:16.389Z,3.45
2023-02-27T06:07:44.763Z,3.47
2023-02-27T06:10:16.053Z,3.48
2023-02-27T06:12:44.610Z,3.51
2023-02-27T06:15:13.686Z,3.56
2023-02-27T06:17:43.287Z,3.56
2023-02-27T06:20:12.960Z,3.63
2023-02-27T06:22:41.402Z,3.73
2023-02-27T06:25:10.711Z,3.81
2023-02-27T06:27:39.012Z,3.88
2023-02-27T06:30:08.614Z,3.96
2023-02-27T06:32:37.166Z,4.02
2023-02-27T06:35:08.030Z,4.06
2023-02-27T06:37:36.304Z,4.07
2023-02-27T06:40:06.038Z,4.08
2023-02-27T06:42:34.360Z,4.06
2023-02-27T06:45:02.761Z,4.04
2023-02-27T06:47:31.008Z,4.04
2023-02-27T06:49:59.333Z,4.02
2023-02-27T06:52:29.620Z,3.99
2023-02-27T06:54:58.524Z,3.98
2023-02-27T06:57:27.145Z,4.00
2023-02-27T06:59:55.436Z,4.01
2023-02-27T07:02:25.702Z,4.00
2023-02-27T07:04:54.563Z,4.01
2023-02-27T07:07:32.250Z,4.02
2023-02-27T07:10:06.924Z,4.01
2023-02-27T07:12:35.688Z,4.00
2023-02-27T07:15:04.785Z,4.04
2023-02-27T07:17:33.095Z,4.10
2023-02-27T07:20:01.730Z,4.14
2023-02-27T07:22:30.235Z,4.13
2023-02-27T07:24:58.500Z,4.16
2023-02-27T07:27:28.214Z,4.20
2023-02-27T07:29:56.524Z,4.21
2023-02-27T07:32:25.115Z,4.25
2023-02-27T07:34:53.366Z,4.31
2023-02-27T07:37:21.670Z,4.42
2023-02-27T07:39:49.901Z,4.58
2023-02-27T07:42:18.139Z,4.76
2023-02-27T07:44:47.821Z,4.84
2023-02-27T07:47:17.749Z,4.82
2023-02-27T07:49:46.308Z,4.74
2023-02-27T07:52:14.591Z,4.63
2023-02-27T07:54:42.898Z,4.60
2023-02-27T07:57:11.511Z,4.70
2023-02-27T07:59:39.820Z,4.78
2023-02-27T08:02:10.733Z,4.93
2023-02-27T08:04:39.552Z,5.03
2023-02-27T08:07:08.274Z,5.02
2023-02-27T08:09:36.585Z,4.95
2023-02-27T08:12:05.072Z,4.92
2023-02-27T08:14:33.376Z,4.86
2023-02-27T08:17:01.700Z,4.82
2023-02-27T08:19:31.694Z,4.81
2023-02-27T08:22:00.013Z,4.82
2023-02-27T08:24:28.384Z,4.99
2023-02-27T08:26:57.408Z,5.35
2023-02-27T08:29:25.757Z,5.83
2023-02-27T08:31:54.321Z,6.48
2023-02-27T08:34:22.755Z,6.83
2023-02-27T08:36:52.872Z,7.17
2023-02-27T08:39:24.413Z,7.16
2023-02-27T08:41:52.984Z,7.04
2023-02-27T08:44:22.035Z,6.74
2023-02-27T08:46:50.336Z,6.37
2023-02-27T08:49:21.467Z,6.05
2023-02-27T08:51:50.014Z,5.85
2023-02-27T08:54:20.735Z,5.85
2023-02-27T08:56:49.388Z,5.96
2023-02-27T08:59:17.878Z,6.18
2023-02-27T09:01:46.314Z,6.36
2023-02-27T09:04:14.721Z,6.45
2023-02-27T09:06:43.042Z,6.58
2023-02-27T09:09:11.550Z,6.70
2023-02-27T09:11:41.566Z,7.22
2023-02-27T09:14:09.916Z,8.09
2023-02-27T09:16:38.233Z,9.10
2023-02-27T09:19:07.178Z,9.94
2023-02-27T09:21:37.477Z,9.59
2023-02-27T09:24:17.575Z,9.98
2023-02-27T09:26:49.176Z,9.57
2023-02-27T09:29:17.890Z,9.10
2023-02-27T09:31:46.806Z,8.58
2023-02-27T09:34:15.192Z,8.17
2023-02-27T09:36:43.582Z,7.94
2023-02-27T09:39:12.369Z,7.61
2023-02-27T09:41:53.794Z,7.50
2023-02-27T09:44:46.123Z,7.29
2023-02-27T09:47:20.484Z,7.19
2023-02-27T09:49:58.463Z,7.04
2023-02-27T09:52:27.534Z,7.32
2023-02-27T09:54:56.100Z,7.66
2023-02-27T09:57:35.949Z,8.09
2023-02-27T10:00:10.072Z,8.17
2023-02-27T10:02:55.899Z,8.06
2023-02-27T10:05:32.838Z,8.00
2023-02-27T10:08:10.788Z,8.06
2023-02-27T10:10:44.927Z,8.48
2023-02-27T10:13:38.034Z,8.58
2023-02-27T10:16:08.253Z,9.22
2023-02-27T10:18:52.282Z,10.42
2023-02-27T10:21:25.125Z,11.51
2023-02-27T10:23:57.418Z,11.28
2023-02-27T10:26:30.187Z,10.09
2023-02-27T10:29:03.705Z,9.34
2023-02-27T10:31:36.091Z,8.65
2023-02-27T10:34:04.422Z,8.12
2023-02-27T10:36:34.701Z,7.96
2023-02-27T10:39:08.672Z,7.82
2023-02-27T10:41:39.912Z,7.79
2023-02-27T10:44:15.635Z,7.60
2023-02-27T10:46:43.964Z,7.58
2023-02-27T10:49:18.856Z,7.70
2023-02-27T10:51:47.634Z,8.08
2023-02-27T10:54:25.072Z,9.04
2023-02-27T10:56:55.894Z,9.60
2023-02-27T10:59:29.930Z,9.53
2023-02-27T11:02:00.495Z,9.57
2023-02-27T11:04:33.336Z,9.43
2023-02-27T11:07:05.239Z,8.89
2023-02-27T11:09:35.440Z,8.08
2023-02-27T11:12:20.137Z,7.87
2023-02-27T11:14:55.311Z,7.73
2023-02-27T11:17:29.560Z,7.65
2023-02-27T11:19:59.458Z,7.73
2023-02-27T11:22:29.865Z,7.80
2023-02-27T11:25:21.416Z,8.09
2023-02-27T11:27:52.316Z,8.19
2023-02-27T11:30:32.211Z,8.44
2023-02-27T11:33:02.934Z,8.69
2023-02-27T11:35:34.483Z,8.87
2023-02-27T11:38:05.855Z,8.70
2023-02-27T11:40:39.462Z,8.66
2023-02-27T11:43:17.503Z,8.44
2023-02-27T11:46:05.860Z,8.65
2023-02-27T11:48:43.492Z,8.95
2023-02-27T11:51:33.608Z,8.38
2023-02-27T11:54:16.381Z,7.84
2023-02-27T11:56:45.841Z,7.17
2023-02-27T11:59:25.377Z,7.04
2023-02-27T12:02:01.120Z,7.28
2023-02-27T12:04:40.967Z,7.64
2023-02-27T12:07:18.660Z,7.97
2023-02-27T12:09:53.133Z,8.27
2023-02-27T12:12:25.306Z,8.53
2023-02-27T12:15:02.419Z,8.52
2023-02-27T12:17:41.248Z,8.72
2023-02-27T12:20:26.472Z,9.14
2023-02-27T12:22:56.479Z,9.08
2023-02-27T12:25:36.090Z,9.08
2023-02-27T12:28:14.463Z,9.17
2023-02-27T12:30:48.939Z,9.15
2023-02-27T12:33:29.489Z,9.18
2023-02-27T12:36:03.613Z,9.11
2023-02-27T12:38:34.461Z,9.15
2023-02-27T12:41:17.367Z,9.00
2023-02-27T12:43:54.600Z,8.94
2023-02-27T12:46:32.319Z,9.11
2023-02-27T12:49:17.633Z,9.05
2023-02-27T12:51:55.211Z,9.30
2023-02-27T12:54:37.079Z,9.44
2023-02-27T12:57:23.897Z,9.19
2023-02-27T13:00:16.417Z,8.89
2023-02-27T13:02:54.782Z,8.66
2023-02-27T13:05:50.526Z,8.73
2023-02-27T13:08:48.464Z,9.02
2023-02-27T13:11:37.787Z,9.25
2023-02-27T13:14:12.569Z,9.16
2023-02-27T13:16:45.358Z,9.03
2023-02-27T13:19:16.941Z,9.26
2023-02-27T13:21:53.388Z,9.29
2023-02-27T13:24:27.180Z,9.29
2023-02-27T13:27:01.916Z,9.42
2023-02-27T13:29:39.811Z,9.58
2023-02-27T13:32:32.759Z,9.67
2023-02-27T13:35:21.454Z,9.77
2023-02-27T13:38:01.704Z,9.67
2023-02-27T13:40:33.645Z,9.47
2023-02-27T13:43:07.347Z,9.11
2023-02-27T13:45:54.332Z,8.72
2023-02-27T13:48:41.227Z,8.80
2023-02-27T13:51:46.982Z,8.88
2023-02-27T13:54:22.034Z,8.91
2023-02-27T13:56:52.556Z,8.96
2023-02-27T13:59:24.649Z,8.82
2023-02-27T14:01:55.925Z,9.00
2023-02-27T14:04:27.455Z,9.02
2023-02-27T14:07:01.745Z,8.86
2023-02-27T14:09:39.173Z,8.77
2023-02-27T14:12:30.921Z,8.87
2023-02-27T14:15:46.527Z,9.22
2023-02-27T14:18:47.737Z,9.35
2023-02-27T14:21:56.583Z,9.46
2023-02-27T14:24:30.084Z,9.61
2023-02-27T14:27:01.370Z,9.61
2023-02-27T14:29:33.664Z,9.67
2023-02-27T14:32:08.817Z,9.74
2023-02-27T14:34:39.439Z,9.81
2023-02-27T14:37:12.403Z,9.76
2023-02-27T14:39:41.753Z,9.66
2023-02-27T14:42:33.023Z,9.59
2023-02-27T14:45:01.662Z,9.33
2023-02-27T14:47:33.152Z,9.38
2023-02-27T14:50:04.128Z,9.32
2023-02-27T14:52:41.990Z,9.25
2023-02-27T14:55:18.001Z,9.27
2023-02-27T14:57:59.152Z,9.42
2023-02-27T15:00:35.192Z,9.51
2023-02-27T15:03:13.429Z,9.56
2023-02-27T15:05:41.994Z,9.49
2023-02-27T15:08:16.636Z,9.53
2023-02-27T15:10:45.756Z,9.22
2023-02-27T15:13:33.866Z,9.03
2023-02-27T15:16:35.906Z,9.09
2023-02-27T15:19:16.991Z,9.26
2023-02-27T15:21:49.743Z,9.20
2023-02-27T15:24:27.782Z,9.19
2023-02-27T15:27:01.144Z,9.33
2023-02-27T15:29:35.471Z,9.42
2023-02-27T15:32:05.693Z,9.54
2023-02-27T15:34:36.433Z,9.39
2023-02-27T15:37:07.243Z,9.15
2023-02-27T15:39:36.941Z,8.88
2023-02-27T15:42:07.134Z,8.70
2023-02-27T15:44:44.295Z,8.69
2023-02-27T15:47:16.983Z,8.95
2023-02-27T15:49:45.436Z,9.20
2023-02-27T15:52:17.882Z,9.03
2023-02-27T15:54:48.462Z,8.77
2023-02-27T15:57:17.043Z,8.66
2023-02-27T15:59:46.765Z,8.86
2023-02-27T16:02:20.043Z,8.81
2023-02-27T16:04:48.964Z,8.52
2023-02-27T16:07:21.573Z,8.63
2023-02-27T16:09:53.872Z,8.82
2023-02-27T16:12:30.944Z,8.76
2023-02-27T16:15:21.782Z,8.61
2023-02-27T16:17:59.169Z,8.61
2023-02-27T16:20:37.584Z,8.69
2023-02-27T16:23:07.335Z,8.48
2023-02-27T16:25:35.754Z,8.44
2023-02-27T16:28:04.250Z,8.54
2023-02-27T16:30:34.004Z,8.60
2023-02-27T16:33:03.061Z,8.47
2023-02-27T16:35:32.012Z,8.43
2023-02-27T16:38:03.656Z,8.30
2023-02-27T16:40:33.967Z,8.30
2023-02-27T16:43:02.477Z,8.37
2023-02-27T16:45:32.115Z,8.39
2023-02-27T16:48:02.970Z,8.39
2023-02-27T16:50:36.303Z,8.30
2023-02-27T16:53:04.514Z,8.29
2023-02-27T16:55:34.007Z,8.19
2023-02-27T16:58:02.312Z,8.14
2023-02-27T17:00:30.987Z,8.06
2023-02-27T17:02:59.211Z,7.90
2023-02-27T17:05:28.884Z,7.88
2023-02-27T17:07:57.072Z,7.85
2023-02-27T17:10:25.698Z,7.69
2023-02-27T17:12:53.976Z,7.71
2023-02-27T17:15:22.540Z,7.70
2023-02-27T17:17:50.994Z,7.61
2023-02-27T17:20:19.635Z,7.67
2023-02-27T17:22:49.238Z,7.65
2023-02-27T17:25:17.519Z,7.54
2023-02-27T17:27:46.232Z,7.56
2023-02-27T17:30:15.509Z,7.53
2023-02-27T17:32:43.737Z,7.50
2023-02-27T17:35:12.525Z,7.40
2023-02-27T17:37:40.747Z,7.33
2023-02-27T17:40:12.351Z,7.28
2023-02-27T17:42:41.240Z,7.24
2023-02-27T17:45:10.813Z,7.22
2023-02-27T17:47:39.103Z,7.18
2023-02-27T17:50:07.616Z,7.10
2023-02-27T17:52:36.774Z,7.03
2023-02-27T17:55:05.959Z,6.96
2023-02-27T17:57:38.064Z,6.91
2023-02-27T18:00:09.072Z,6.86
2023-02-27T18:02:38.030Z,6.87
2023-02-27T18:05:06.863Z,6.81
2023-02-27T18:07:35.638Z,6.78
2023-02-27T18:10:05.498Z,6.68
2023-02-27T18:12:34.415Z,6.69
2023-02-27T18:15:05.870Z,6.64
2023-02-27T18:17:34.652Z,6.60
2023-02-27T18:20:02.963Z,6.55
2023-02-27T18:22:33.233Z,6.53
2023-02-27T18:25:01.615Z,6.51
2023-02-27T18:27:30.519Z,6.46
2023-02-27T18:29:59.304Z,6.44
2023-02-27T18:32:29.104Z,6.40
2023-02-27T18:34:57.378Z,6.35
2023-02-27T18:37:25.635Z,6.35
2023-02-27T18:39:54.221Z,6.26
2023-02-27T18:42:22.488Z,6.27
2023-02-27T18:44:50.790Z,6.24
2023-02-27T18:47:19.072Z,6.19
2023-02-27T18:49:48.683Z,6.17
2023-02-27T18:52:17.223Z,6.17
2023-02-27T18:54:45.432Z,6.13
2023-02-27T18:57:13.773Z,6.10
2023-02-27T18:59:42.081Z,6.09
2023-02-27T19:02:15.912Z,6.03
2023-02-27T19:04:44.335Z,6.00
2023-02-27T19:07:14.496Z,5.98
2023-02-27T19:09:43.267Z,5.96
2023-02-27T19:12:11.919Z,5.96
2023-02-27T19:14:40.703Z,5.94
2023-02-27T19:17:09.026Z,5.95
2023-02-27T19:19:37.489Z,5.95
2023-02-27T19:22:05.809Z,5.94
2023-02-27T19:24:35.452Z,5.93
2023-02-27T19:27:03.824Z,5.87
2023-02-27T19:29:32.323Z,5.89
2023-02-27T19:32:02.264Z,5.85
2023-02-27T19:34:30.643Z,5.85
2023-02-27T19:36:58.997Z,5.83
2023-02-27T19:39:27.282Z,5.80
2023-02-27T19:41:57.604Z,5.77
2023-02-27T19:44:26.715Z,5.74
2023-02-27T19:46:55.122Z,5.72
2023-02-27T19:49:23.378Z,5.72
2023-02-27T19:51:52.352Z,5.72
2023-02-27T19:54:20.651Z,5.72
2023-02-27T19:56:49.222Z,5.69
2023-02-27T19:59:19.029Z,5.69
2023-02-27T20:01:47.661Z,5.66
2023-02-27T20:04:17.712Z,5.64
2023-02-27T20:06:47.832Z,5.63
2023-02-27T20:09:20.463Z,5.60
2023-02-27T20:11:49.115Z,5.60
2023-02-27T20:14:19.340Z,5.60
2023-02-27T20:16:47.801Z,5.61
2023-02-27T20:19:17.892Z,5.66
2023-02-27T20:21:47.204Z,5.62
2023-02-27T20:24:18.268Z,5.63
2023-02-27T20:26:48.477Z,5.60
2023-02-27T20:29:20.400Z,5.60
2023-02-27T20:31:50.906Z,5.57
2023-02-27T20:34:22.075Z,5.58
2023-02-27T20:36:51.178Z,5.59
2023-02-27T20:39:20.514Z,5.62
2023-02-27T20:41:49.336Z,5.61
2023-02-27T20:44:17.702Z,5.60
2023-02-27T20:46:49.436Z,5.54
2023-02-27T20:49:18.480Z,5.50
2023-02-27T20:51:47.045Z,5.48
2023-02-27T20:54:20.613Z,5.43
2023-02-27T20:56:51.976Z,5.44
2023-02-27T20:59:22.449Z,5.42
2023-02-27T21:01:52.729Z,5.38
2023-02-27T21:04:22.657Z,5.38
2023-02-27T21:06:51.513Z,5.32
2023-02-27T21:09:20.382Z,5.30
2023-02-27T21:11:48.696Z,5.25
2023-02-27T21:14:16.976Z,5.22
2023-02-27T21:16:45.179Z,5.21
2023-02-27T21:19:15.200Z,5.19
2023-02-27T21:21:43.521Z,5.15
2023-02-27T21:24:11.810Z,5.12
2023-02-27T21:26:40.746Z,5.10
2023-02-27T21:29:11.035Z,5.08
2023-02-27T21:31:41.032Z,5.04
2023-02-27T21:34:16.921Z,5.02
2023-02-27T21:36:47.766Z,4.97
2023-02-27T21:39:17.790Z,4.92
2023-02-27T21:41:46.612Z,4.87
2023-02-27T21:44:17.460Z,4.86
2023-02-27T21:46:46.352Z,4.85
2023-02-27T21:49:17.300Z,4.84
2023-02-27T21:51:47.438Z,4.83
2023-02-27T21:54:16.703Z,4.79
2023-02-27T21:56:46.354Z,4.76
2023-02-27T21:59:15.167Z,4.72
2023-02-27T22:01:47.283Z,4.72
2023-02-27T22:04:16.142Z,4.69
2023-02-27T22:06:44.522Z,4.66
2023-02-27T22:09:14.623Z,4.63
2023-02-27T22:11:43.222Z,4.60
2023-02-27T22:14:13.030Z,4.59
2023-02-27T22:16:41.991Z,4.57
2023-02-27T22:19:12.341Z,4.53
2023-02-27T22:21:41.216Z,4.53
2023-02-27T22:24:09.753Z,4.51
2023-02-27T22:26:39.950Z,4.49
2023-02-27T22:29:08.274Z,4.46
2023-02-27T22:31:39.111Z,4.40
2023-02-27T22:34:12.154Z,4.34
2023-02-27T22:36:41.751Z,4.27
2023-02-27T22:39:10.172Z,4.22
2023-02-27T22:41:41.230Z,4.19
2023-02-27T22:44:10.910Z,4.18
2023-02-27T22:46:41.312Z,4.20
2023-02-27T22:49:12.915Z,4.24
2023-02-27T22:51:41.328Z,4.25
2023-02-27T22:54:11.303Z,4.27
2023-02-27T22:56:41.897Z,4.27
2023-02-27T22:59:11.040Z,4.29
2023-02-27T23:01:39.591Z,4.31
2023-02-27T23:04:11.529Z,4.34
2023-02-27T23:06:41.125Z,4.39
2023-02-27T23:09:13.638Z,4.48
2023-02-27T23:11:43.652Z,4.56
2023-02-27T23:14:13.148Z,4.67
2023-02-27T23:16:45.616Z,4.71
2023-02-27T23:19:15.646Z,4.77
2023-02-27T23:21:44.341Z,4.85
2023-02-27T23:24:14.656Z,4.89
2023-02-27T23:26:46.573Z,4.92
2023-02-27T23:29:15.270Z,4.92
2023-02-27T23:31:43.783Z,4.95
2023-02-27T23:34:12.526Z,4.97
2023-02-27T23:36:40.968Z,4.99
2023-02-27T23:39:10.025Z,4.99
2023-02-27T23:41:38.258Z,5.04
2023-02-27T23:44:25.570Z,5.06
2023-02-27T23:46:53.799Z,5.07
2023-02-27T23:49:22.300Z,5.05
2023-02-27T23:51:50.614Z,5.05
2023-02-27T23:54:19.627Z,5.04
2023-02-27T23:56:48.668Z,5.04
2023-02-27T23:59:18.404Z,5.01
